Time;durP1;ratioP1;P1;durP2;ratioP2;P2;SDS_P1;SDS_P2;PMS_P1;PMS_P2;Temp;Humidity;BMP_temperature;BMP_pressure;BME280_temperature;BME280_humidity;BME280_pressure;Samples;Min_cycle;Max_cycle;Signal;HPM_P1;HPM_P2
2023/04/16 00:01:42;;;;;;;2.35;1.63;;;21.20;99.90;;;;;;5088008;28;20039;-65
2023/04/16 00:14:52;;;;;;;3.17;1.00;;;21.30;99.90;;;;;;5079559;27;20483;-65
2023/04/16 00:17:19;;;;;;;4.15;1.73;;;22.10;99.90;;;;;;5064785;28;20029;-65
2023/04/16 00:19:47;;;;;;;1.83;0.90;;;22.30;99.90;;;;;;5067386;28;20518;-64
2023/04/16 00:22:14;;;;;;;3.40;1.25;;;22.50;99.90;;;;;;5064290;28;20082;-66
2023/04/16 00:24:42;;;;;;;5.65;1.00;;;22.90;99.90;;;;;;5057731;28;20040;-67
2023/04/16 00:27:09;;;;;;;2.47;0.93;;;23.30;99.90;;;;;;5067138;28;20024;-63
2023/04/16 00:29:37;;;;;;;12.65;7.47;;;23.60;99.90;;;;;;5041534;28;20024;-65
2023/04/16 00:32:05;;;;;;;11.35;6.07;;;23.80;99.90;;;;;;5052064;28;20080;-65
2023/04/16 00:34:32;;;;;;;6.15;3.13;;;24.10;99.90;;;;;;5060929;28;20028;-65
2023/04/16 00:37:00;;;;;;;5.93;2.60;;;24.30;99.90;;;;;;5061779;28;20096;-64
2023/04/16 00:39:27;;;;;;;9.75;3.97;;;24.30;99.90;;;;;;5057352;28;20017;-64
2023/04/16 00:41:55;;;;;;;8.80;3.30;;;24.50;99.90;;;;;;5050185;28;20139;-66
2023/04/16 00:44:22;;;;;;;7.60;3.45;;;24.70;99.90;;;;;;5058398;28;20508;-67
2023/04/16 00:46:51;;;;;;;4.72;2.45;;;24.70;99.90;;;;;;5063695;28;20033;-65
2023/04/16 00:49:19;;;;;;;3.75;1.90;;;24.80;99.90;;;;;;5063500;28;20027;-67
2023/04/16 00:51:47;;;;;;;7.10;2.47;;;24.80;99.90;;;;;;5065101;28;20025;-67
2023/04/16 00:54:14;;;;;;;4.32;2.28;;;24.50;99.90;;;;;;5062427;28;20025;-68
2023/04/16 00:56:44;;;;;;;4.03;2.35;;;24.40;99.90;;;;;;5052079;28;20021;-67
2023/04/16 00:59:11;;;;;;;3.38;1.45;;;24.20;99.90;;;;;;5064370;28;20056;-67
2023/04/16 01:01:39;;;;;;;3.25;1.63;;;24.10;99.90;;;;;;5042596;28;20108;-68
2023/04/16 01:04:06;;;;;;;4.40;1.75;;;24.20;99.90;;;;;;5056083;28;20039;-68
2023/04/16 01:06:36;;;;;;;3.65;2.22;;;24.30;99.90;;;;;;5045611;28;20040;-67
2023/04/16 01:09:04;;;;;;;7.13;3.45;;;24.40;99.90;;;;;;5061338;28;20082;-65
2023/04/16 01:11:32;;;;;;;4.53;2.47;;;24.60;99.90;;;;;;5063867;28;20020;-68
2023/04/16 01:13:59;;;;;;;4.72;1.52;;;24.80;99.90;;;;;;5059564;28;20073;-67
2023/04/16 01:16:27;;;;;;;6.75;2.20;;;24.90;99.90;;;;;;5043611;28;20032;-67
2023/04/16 01:18:54;;;;;;;3.35;1.70;;;25.20;99.90;;;;;;5043007;28;20421;-66
2023/04/16 01:21:22;;;;;;;3.30;1.60;;;25.30;99.90;;;;;;5044941;28;20048;-68
2023/04/16 01:23:49;;;;;;;4.65;1.25;;;25.40;99.90;;;;;;5046007;28;20037;-68
2023/04/16 01:26:16;;;;;;;4.20;2.25;;;25.50;99.90;;;;;;5049094;28;20102;-64
2023/04/16 01:28:47;;;;;;;4.45;1.73;;;25.70;99.90;;;;;;5052337;28;20508;-65
2023/04/16 01:31:17;;;;;;;2.28;1.00;;;25.80;99.10;;;;;;5043335;28;20041;-66
2023/04/16 01:33:45;;;;;;;2.25;0.85;;;25.90;98.70;;;;;;5044325;28;20025;-65
2023/04/16 01:36:18;;;;;;;2.95;1.67;;;25.90;99.00;;;;;;5026808;28;20025;-66
2023/04/16 01:38:46;;;;;;;3.60;1.33;;;25.90;98.30;;;;;;5032243;28;20029;-66
2023/04/16 01:41:13;;;;;;;3.55;1.70;;;26.00;99.30;;;;;;5052934;28;20029;-66
2023/04/16 01:43:41;;;;;;;1.60;0.88;;;26.10;98.40;;;;;;5032796;28;20086;-67
2023/04/16 01:46:31;;;;;;;5.22;1.40;;;26.20;98.20;;;;;;5051509;28;20017;-66
2023/04/16 01:49:02;;;;;;;3.63;1.20;;;26.40;98.10;;;;;;5051890;28;20033;-67
2023/04/16 01:51:29;;;;;;;4.47;1.17;;;26.50;98.40;;;;;;5051476;28;20477;-65
2023/04/16 01:53:57;;;;;;;2.60;1.17;;;26.50;97.40;;;;;;5032916;28;20091;-66
2023/04/16 01:56:25;;;;;;;4.45;1.85;;;26.50;97.20;;;;;;5050916;28;20025;-66
2023/04/16 01:58:53;;;;;;;3.17;1.27;;;26.50;97.10;;;;;;5053275;28;20109;-66
2023/04/16 02:01:20;;;;;;;6.28;1.30;;;26.50;97.40;;;;;;5057067;28;20158;-66
2023/04/16 02:03:51;;;;;;;2.55;1.17;;;26.50;96.80;;;;;;5050908;28;20059;-66
2023/04/16 02:06:22;;;;;;;3.75;1.63;;;26.50;96.90;;;;;;5054562;28;20032;-66
2023/04/16 02:08:49;;;;;;;2.33;1.30;;;26.50;99.00;;;;;;5051225;28;20064;-65
2023/04/16 02:11:16;;;;;;;2.97;0.90;;;26.60;97.80;;;;;;5034200;28;20025;-64
2023/04/16 02:13:44;;;;;;;4.28;1.50;;;26.80;98.20;;;;;;5033862;28;20095;-66
2023/04/16 02:16:11;;;;;;;3.25;0.95;;;26.90;97.70;;;;;;5030636;28;20021;-63
2023/04/16 02:18:39;;;;;;;2.40;1.00;;;27.00;96.90;;;;;;5039537;28;20025;-64
2023/04/16 02:21:07;;;;;;;4.72;1.30;;;27.00;97.20;;;;;;5050573;28;20107;-65
2023/04/16 02:23:34;;;;;;;2.97;1.17;;;27.10;97.60;;;;;;5050382;28;20048;-65
2023/04/16 02:26:03;;;;;;;1.55;1.08;;;26.90;96.10;;;;;;5036740;28;20080;-66
2023/04/16 02:28:30;;;;;;;2.50;1.02;;;26.90;96.20;;;;;;5051054;28;20032;-65
2023/04/16 02:30:58;;;;;;;1.27;0.82;;;26.90;96.30;;;;;;5050422;28;20087;-65
2023/04/16 02:33:30;;;;;;;3.20;1.25;;;26.80;96.40;;;;;;5046877;28;20135;-66
2023/04/16 02:35:58;;;;;;;2.42;1.10;;;26.80;96.40;;;;;;5048244;28;20092;-64
2023/04/16 02:38:25;;;;;;;5.70;1.13;;;26.80;95.20;;;;;;5049376;28;20025;-66
2023/04/16 02:41:01;;;;;;;3.03;0.90;;;26.80;94.30;;;;;;5041311;28;20021;-65
2023/04/16 02:43:38;;;;;;;2.65;0.95;;;26.70;94.90;;;;;;5039848;28;20131;-64
2023/04/16 02:46:06;;;;;;;1.83;1.08;;;26.50;93.60;;;;;;5049419;28;20025;-66
2023/04/16 02:48:39;;;;;;;2.67;1.10;;;26.20;94.50;;;;;;5049812;28;20036;-67
2023/04/16 02:51:10;;;;;;;3.35;1.30;;;26.10;95.20;;;;;;5049770;28;20025;-68
2023/04/16 02:53:37;;;;;;;5.05;1.23;;;25.90;96.10;;;;;;5049428;28;20037;-67
2023/04/16 02:56:07;;;;;;;2.63;0.88;;;25.90;97.60;;;;;;5048514;28;20480;-66
2023/04/16 02:58:38;;;;;;;4.13;1.00;;;25.70;96.10;;;;;;5050479;28;20060;-66
2023/04/16 03:01:05;;;;;;;2.95;0.90;;;25.60;94.40;;;;;;5049593;28;20367;-66
2023/04/16 03:03:33;;;;;;;2.63;0.90;;;25.60;94.40;;;;;;5048743;28;20120;-67
2023/04/16 03:06:00;;;;;;;2.15;0.70;;;25.70;91.60;;;;;;5028165;28;20017;-65
2023/04/16 03:08:34;;;;;;;1.50;0.80;;;25.90;90.10;;;;;;5047058;28;20027;-65
2023/04/16 03:11:01;;;;;;;4.47;1.20;;;25.80;88.50;;;;;;5033688;28;20118;-66
2023/04/16 03:13:28;;;;;;;2.53;0.77;;;25.80;86.60;;;;;;5035855;28;20049;-65
2023/04/16 03:15:56;;;;;;;3.10;1.05;;;25.80;84.80;;;;;;5051509;28;20025;-66
2023/04/16 03:18:29;;;;;;;3.08;0.70;;;26.00;83.20;;;;;;5033022;28;20241;-65
2023/04/16 03:20:56;;;;;;;3.22;0.82;;;26.10;84.80;;;;;;5049349;28;20452;-65
2023/04/16 03:23:24;;;;;;;3.45;0.82;;;26.40;80.70;;;;;;5047987;28;20254;-64
2023/04/16 03:25:51;;;;;;;1.15;0.57;;;26.20;81.90;;;;;;5049582;28;20404;-63
2023/04/16 03:28:19;;;;;;;6.47;1.38;;;26.10;83.20;;;;;;5039232;28;20579;-66
2023/04/16 03:30:52;;;;;;;2.92;0.60;;;25.70;84.30;;;;;;5050609;28;20045;-66
2023/04/16 03:33:21;;;;;;;2.30;0.85;;;25.50;85.50;;;;;;5051535;28;20036;-66
2023/04/16 03:35:56;;;;;;;1.10;0.50;;;25.60;87.90;;;;;;5050260;28;20029;-65
2023/04/16 03:38:27;;;;;;;1.50;0.70;;;25.70;84.60;;;;;;5030474;28;20033;-66
2023/04/16 03:40:55;;;;;;;2.75;0.93;;;25.70;85.10;;;;;;5043178;28;20486;-66
2023/04/16 03:43:22;;;;;;;1.40;0.60;;;25.70;86.20;;;;;;5050376;28;20110;-65
2023/04/16 03:45:49;;;;;;;2.83;0.60;;;25.70;85.50;;;;;;5049873;28;20099;-66
2023/04/16 03:48:17;;;;;;;9.30;0.50;;;25.70;84.40;;;;;;5047893;28;20470;-64
2023/04/16 03:50:47;;;;;;;0.88;0.28;;;25.40;84.50;;;;;;5046865;28;20053;-65
2023/04/16 03:53:27;;;;;;;0.82;0.40;;;25.10;86.40;;;;;;5046565;28;20025;-66
2023/04/16 03:55:55;;;;;;;0.95;0.30;;;25.10;82.10;;;;;;5048266;28;20132;-66
2023/04/16 03:58:22;;;;;;;0.82;0.32;;;25.20;81.30;;;;;;5041558;28;20036;-65
2023/04/16 04:00:52;;;;;;;0.70;0.40;;;25.10;80.50;;;;;;5031775;28;20031;-66
2023/04/16 04:03:19;;;;;;;2.08;0.30;;;25.10;79.60;;;;;;5047070;28;20037;-68
2023/04/16 04:05:50;;;;;;;0.30;0.20;;;25.00;75.70;;;;;;5049371;28;20079;-66
2023/04/16 04:08:20;;;;;;;1.35;0.32;;;25.00;74.50;;;;;;5049516;28;20029;-66
2023/04/16 04:10:47;;;;;;;0.60;0.38;;;25.00;72.40;;;;;;5040497;28;20237;-66
2023/04/16 04:13:37;;;;;;;0.45;0.22;;;24.90;67.40;;;;;;5034950;28;20099;-67
2023/04/16 04:16:05;;;;;;;0.20;0.20;;;24.90;65.10;;;;;;5047856;28;20027;-67
2023/04/16 04:18:33;;;;;;;0.93;0.30;;;24.80;62.70;;;;;;5026221;28;20033;-68
2023/04/16 04:21:04;;;;;;;0.10;0.10;;;24.80;59.80;;;;;;5045496;28;20025;-68
2023/04/16 04:23:34;;;;;;;0.20;0.10;;;24.90;59.90;;;;;;5038813;28;20429;-65
2023/04/16 04:26:04;;;;;;;1.15;0.20;;;24.80;56.50;;;;;;5040544;28;20021;-65
2023/04/16 04:28:32;;;;;;;0.80;0.70;;;24.70;57.00;;;;;;5046743;28;20057;-62
2023/04/16 04:31:03;;;;;;;2.63;0.25;;;24.60;55.20;;;;;;5035125;28;20035;-64
2023/04/16 04:33:31;;;;;;;0.55;0.20;;;24.70;56.20;;;;;;5045230;28;20068;-63
2023/04/16 04:35:58;;;;;;;0.70;0.45;;;24.60;56.70;;;;;;5044278;28;20112;-63
2023/04/16 04:38:25;;;;;;;0.22;0.22;;;24.60;56.20;;;;;;5045390;28;20037;-67
2023/04/16 04:40:56;;;;;;;0.50;0.20;;;24.60;57.00;;;;;;5046482;28;20039;-66
2023/04/16 04:43:32;;;;;;;0.40;0.30;;;24.50;56.70;;;;;;5047252;28;20091;-67
2023/04/16 04:45:59;;;;;;;0.20;0.20;;;24.50;55.80;;;;;;5045605;28;20521;-70
2023/04/16 04:48:27;;;;;;;0.45;0.38;;;24.50;54.80;;;;;;5045172;28;20052;-67
2023/04/16 04:50:54;;;;;;;0.55;0.30;;;24.40;54.50;;;;;;5044323;28;20036;-65
2023/04/16 04:53:22;;;;;;;0.40;0.20;;;24.40;55.20;;;;;;5044496;28;20036;-68
2023/04/16 04:55:49;;;;;;;2.15;0.90;;;24.30;55.90;;;;;;5045553;28;20037;-68
2023/04/16 04:58:20;;;;;;;1.05;0.50;;;24.20;56.80;;;;;;5048266;28;20381;-67
2023/04/16 05:00:56;;;;;;;0.55;0.30;;;24.20;58.50;;;;;;5032123;28;20056;-68
2023/04/16 05:03:24;;;;;;;0.13;0.13;;;24.20;57.20;;;;;;5032523;28;20040;-68
2023/04/16 05:05:57;;;;;;;3.03;0.32;;;24.20;57.10;;;;;;5045808;28;20068;-70
2023/04/16 05:08:25;;;;;;;5.07;0.40;;;24.00;54.50;;;;;;5031214;28;20640;-67
2023/04/16 05:10:59;;;;;;;0.32;0.17;;;23.70;56.40;;;;;;5046115;28;20029;-64
2023/04/16 05:13:29;;;;;;;0.90;0.20;;;23.50;56.40;;;;;;5044883;28;20072;-66
2023/04/16 05:15:57;;;;;;;1.65;0.20;;;23.40;57.90;;;;;;5047750;28;20033;-68
2023/04/16 05:18:24;;;;;;;2.75;0.40;;;23.30;58.80;;;;;;5047630;28;20745;-67
2023/04/16 05:20:51;;;;;;;0.20;0.17;;;23.20;58.20;;;;;;5050142;28;20108;-66
2023/04/16 05:23:19;;;;;;;5.72;0.30;;;23.10;58.40;;;;;;5049517;28;20105;-67
2023/04/16 05:25:46;;;;;;;3.60;0.90;;;23.00;58.80;;;;;;5033937;28;20477;-67
2023/04/16 05:28:14;;;;;;;3.58;0.50;;;22.90;59.70;;;;;;5049896;28;20062;-66
2023/04/16 05:30:44;;;;;;;6.07;0.35;;;22.80;60.20;;;;;;5055461;28;20452;-65
2023/04/16 05:33:14;;;;;;;5.68;0.35;;;22.60;59.80;;;;;;5039140;28;20029;-69
2023/04/16 05:35:51;;;;;;;5.47;0.52;;;22.50;61.00;;;;;;5049451;28;20027;-68
2023/04/16 05:38:22;;;;;;;4.03;0.47;;;22.50;61.90;;;;;;5041363;28;20108;-69
2023/04/16 05:40:49;;;;;;;5.20;0.73;;;22.40;62.80;;;;;;5049670;28;20323;-66
2023/04/16 05:43:17;;;;;;;0.30;0.17;;;22.40;62.00;;;;;;5032007;28;20040;-66
2023/04/16 05:45:44;;;;;;;2.05;0.40;;;22.30;62.30;;;;;;5049971;28;20382;-66
2023/04/16 05:48:12;;;;;;;0.90;0.28;;;22.20;62.60;;;;;;5057250;28;20036;-66
2023/04/16 05:50:40;;;;;;;0.90;0.20;;;22.20;62.50;;;;;;5055755;28;20524;-66
2023/04/16 05:53:08;;;;;;;0.35;0.20;;;22.10;63.10;;;;;;5046569;28;20063;-66
2023/04/16 05:55:36;;;;;;;0.30;0.20;;;22.10;62.70;;;;;;5048202;28;20497;-65
2023/04/16 05:58:03;;;;;;;0.10;0.10;;;22.10;63.70;;;;;;5043583;28;20536;-65
2023/04/16 06:00:32;;;;;;;0.30;0.13;;;22.10;63.70;;;;;;5043870;28;20022;-65
2023/04/16 06:02:59;;;;;;;1.00;0.25;;;22.00;64.20;;;;;;5044768;28;20051;-65
2023/04/16 06:05:27;;;;;;;0.10;0.10;;;22.00;65.30;;;;;;5033084;28;20033;-66
2023/04/16 06:07:54;;;;;;;0.57;0.10;;;21.90;66.10;;;;;;5030831;28;20029;-65
2023/04/16 06:10:22;;;;;;;1.70;0.50;;;22.00;65.70;;;;;;5034654;28;20035;-66
2023/04/16 06:12:50;;;;;;;0.10;0.10;;;22.00;65.90;;;;;;5046124;28;20091;-65
2023/04/16 06:15:17;;;;;;;0.20;0.20;;;21.90;66.00;;;;;;5047088;28;20029;-65
2023/04/16 06:17:44;;;;;;;1.45;0.20;;;21.90;65.30;;;;;;5047575;28;20013;-65
2023/04/16 06:20:12;;;;;;;0.50;0.10;;;21.80;65.40;;;;;;5028356;28;20028;-66
2023/04/16 06:22:40;;;;;;;0.40;0.17;;;21.70;65.60;;;;;;5029892;28;20041;-66
2023/04/16 06:25:08;;;;;;;0.10;0.10;;;21.70;65.30;;;;;;5034609;28;20768;-66
2023/04/16 06:27:36;;;;;;;0.50;0.30;;;21.70;64.70;;;;;;5044782;28;20017;-66
2023/04/16 06:30:03;;;;;;;0.63;0.30;;;21.60;64.80;;;;;;5044053;28;20028;-65
2023/04/16 06:32:31;;;;;;;0.32;0.22;;;21.50;65.10;;;;;;5045935;28;20049;-65
2023/04/16 06:34:58;;;;;;;0.43;0.20;;;21.50;63.60;;;;;;5041550;28;20389;-63
2023/04/16 06:37:26;;;;;;;0.32;0.20;;;21.40;63.70;;;;;;5047190;28;20029;-65
2023/04/16 06:39:53;;;;;;;0.15;0.10;;;21.40;62.80;;;;;;5045838;28;20128;-66
2023/04/16 06:42:20;;;;;;;0.50;0.30;;;21.30;64.10;;;;;;5047815;28;20031;-64
2023/04/16 06:44:48;;;;;;;0.20;0.20;;;21.20;63.80;;;;;;5047212;28;20400;-64
2023/04/16 06:47:16;;;;;;;0.10;0.10;;;21.10;63.90;;;;;;5046031;28;20056;-65
2023/04/16 06:49:43;;;;;;;0.22;0.10;;;21.00;64.30;;;;;;5045307;28;20021;-64
2023/04/16 06:52:15;;;;;;;0.85;0.30;;;20.90;65.10;;;;;;5030651;28;20035;-64
2023/04/16 06:54:42;;;;;;;0.50;0.35;;;20.80;65.10;;;;;;5027959;28;20037;-65
2023/04/16 06:57:12;;;;;;;0.15;0.10;;;20.70;65.50;;;;;;5031709;28;20033;-66
2023/04/16 06:59:40;;;;;;;0.65;0.30;;;20.60;66.80;;;;;;5047220;28;20036;-65
2023/04/16 07:02:09;;;;;;;1.38;0.22;;;20.50;66.90;;;;;;5047493;28;20032;-65
2023/04/16 07:04:37;;;;;;;0.30;0.30;;;20.50;64.70;;;;;;5047093;28;20033;-66
2023/04/16 07:07:04;;;;;;;2.33;0.45;;;20.50;65.00;;;;;;5046241;28;20028;-64
2023/04/16 07:09:32;;;;;;;0.10;0.10;;;20.40;64.30;;;;;;5045885;28;20031;-67
2023/04/16 07:11:59;;;;;;;0.10;0.10;;;20.30;64.20;;;;;;5045663;28;20021;-64
2023/04/16 07:14:27;;;;;;;0.47;0.10;;;20.30;64.50;;;;;;5059832;28;20131;-64
2023/04/16 07:16:54;;;;;;;0.95;0.30;;;20.20;64.80;;;;;;5047694;28;20029;-64
2023/04/16 07:19:22;;;;;;;0.20;0.20;;;20.00;65.30;;;;;;5057336;28;20027;-65
2023/04/16 07:21:49;;;;;;;0.15;0.10;;;19.90;65.80;;;;;;5046679;28;20075;-64
2023/04/16 07:24:17;;;;;;;0.25;0.20;;;19.80;66.60;;;;;;5045814;28;20490;-63
2023/04/16 07:26:44;;;;;;;0.77;0.40;;;19.60;67.70;;;;;;5046914;28;20086;-64
2023/04/16 07:29:12;;;;;;;1.63;0.70;;;19.50;67.90;;;;;;5044486;28;20021;-64
2023/04/16 07:31:40;;;;;;;16.85;8.35;;;19.40;68.20;;;;;;5044668;28;20047;-66
2023/04/16 07:34:10;;;;;;;21.00;12.70;;;19.30;68.90;;;;;;5046376;28;20025;-68
2023/04/16 07:36:38;;;;;;;8.85;4.93;;;19.30;69.70;;;;;;5044552;28;20029;-66
2023/04/16 07:39:05;;;;;;;3.20;2.05;;;19.20;69.30;;;;;;5046591;28;20029;-66
2023/04/16 07:41:35;;;;;;;1.05;0.40;;;19.10;69.70;;;;;;5043766;28;20048;-67
2023/04/16 07:44:04;;;;;;;0.57;0.20;;;19.00;70.30;;;;;;5047355;28;20037;-65
2023/04/16 07:46:31;;;;;;;0.15;0.10;;;18.80;71.00;;;;;;5045550;28;20053;-67
2023/04/16 07:48:58;;;;;;;0.40;0.20;;;18.80;70.70;;;;;;5062898;28;20365;-66
2023/04/16 07:51:26;;;;;;;0.45;0.22;;;18.60;72.30;;;;;;5048406;28;20017;-64
2023/04/16 07:53:54;;;;;;;0.20;0.20;;;18.50;72.30;;;;;;5060804;28;20033;-64
2023/04/16 07:56:21;;;;;;;0.10;0.10;;;18.40;73.60;;;;;;5026716;28;20025;-67
2023/04/16 07:58:49;;;;;;;0.98;0.40;;;18.40;73.30;;;;;;5046568;28;20060;-63
2023/04/16 08:01:16;;;;;;;0.77;0.15;;;18.40;73.10;;;;;;5038289;28;20021;-63
2023/04/16 08:03:44;;;;;;;0.55;0.30;;;18.30;72.10;;;;;;5045314;28;20068;-63
2023/04/16 08:06:11;;;;;;;1.73;0.28;;;18.40;72.00;;;;;;5043585;28;20021;-62
2023/04/16 08:08:38;;;;;;;0.50;0.30;;;18.30;71.90;;;;;;5026943;28;20067;-62
2023/04/16 08:11:06;;;;;;;1.02;0.20;;;18.20;71.80;;;;;;5045001;28;20170;-62
2023/04/16 08:13:33;;;;;;;0.32;0.17;;;18.10;71.80;;;;;;5044391;28;20045;-63
2023/04/16 08:16:01;;;;;;;1.38;0.30;;;17.90;73.50;;;;;;5046084;28;20409;-62
2023/04/16 08:18:28;;;;;;;0.50;0.30;;;17.70;72.30;;;;;;5043680;28;20500;-62
2023/04/16 08:20:56;;;;;;;0.35;0.20;;;17.50;74.00;;;;;;5047148;28;20025;-62
2023/04/16 08:23:23;;;;;;;1.00;0.20;;;17.30;74.60;;;;;;5031422;28;20528;-62
2023/04/16 08:25:50;;;;;;;0.55;0.20;;;17.20;75.60;;;;;;5049454;28;21553;-62
2023/04/16 08:28:18;;;;;;;1.90;0.90;;;17.00;77.10;;;;;;5050472;28;20063;-61
2023/04/16 08:30:45;;;;;;;4.10;1.85;;;16.90;77.30;;;;;;5050676;28;20054;-62
2023/04/16 08:33:13;;;;;;;2.80;1.20;;;16.80;78.20;;;;;;5051555;28;20021;-63
2023/04/16 08:35:40;;;;;;;0.75;0.40;;;16.60;80.60;;;;;;5050179;28;20128;-63
2023/04/16 08:38:08;;;;;;;2.05;0.57;;;16.50;81.20;;;;;;5037023;28;20032;-63
2023/04/16 08:40:38;;;;;;;1.95;0.38;;;16.60;80.80;;;;;;5050480;28;20378;-63
2023/04/16 08:43:12;;;;;;;1.60;0.68;;;16.70;81.10;;;;;;5051254;28;20721;-63
2023/04/16 08:45:44;;;;;;;0.30;0.20;;;16.80;80.00;;;;;;5039321;28;20060;-63
2023/04/16 08:48:12;;;;;;;2.53;0.40;;;16.80;79.40;;;;;;5050611;28;20032;-63
2023/04/16 08:50:41;;;;;;;1.70;0.95;;;16.80;79.60;;;;;;5051010;28;20017;-62
2023/04/16 08:53:14;;;;;;;1.48;0.75;;;16.70;80.70;;;;;;5050644;28;20060;-62
2023/04/16 08:55:47;;;;;;;0.82;0.60;;;16.70;81.30;;;;;;5031778;28;20527;-62
2023/04/16 08:58:18;;;;;;;0.80;0.50;;;16.70;81.30;;;;;;5036342;28;20083;-62
2023/04/16 09:00:47;;;;;;;1.27;0.90;;;16.80;81.50;;;;;;5049089;28;20071;-62
2023/04/16 09:03:14;;;;;;;2.17;0.63;;;16.90;81.20;;;;;;5050691;28;20108;-63
2023/04/16 09:05:43;;;;;;;1.95;0.82;;;17.00;80.40;;;;;;5050766;28;20027;-63
2023/04/16 09:08:10;;;;;;;2.00;1.00;;;16.90;81.00;;;;;;5050879;28;20043;-63
2023/04/16 09:10:38;;;;;;;1.90;1.08;;;16.90;81.50;;;;;;5047662;28;20075;-63
2023/04/16 09:13:07;;;;;;;2.42;1.10;;;16.90;80.70;;;;;;5045609;28;20057;-62
2023/04/16 09:15:35;;;;;;;2.45;1.23;;;16.90;81.80;;;;;;5046852;28;20425;-59
2023/04/16 09:18:03;;;;;;;1.80;0.40;;;16.80;82.40;;;;;;5048726;28;20584;-59
2023/04/16 09:20:30;;;;;;;1.27;0.38;;;16.80;82.80;;;;;;5047590;28;20033;-59
2023/04/16 09:22:58;;;;;;;0.43;0.30;;;16.90;82.30;;;;;;5048215;28;20025;-62
2023/04/16 09:25:25;;;;;;;1.27;0.50;;;17.00;82.40;;;;;;5047061;28;20033;-62
2023/04/16 09:27:53;;;;;;;0.50;0.30;;;17.10;82.60;;;;;;5048017;28;20132;-61
2023/04/16 09:30:21;;;;;;;2.13;0.85;;;17.00;83.10;;;;;;5046242;28;20076;-62
2023/04/16 09:32:50;;;;;;;3.50;1.13;;;16.80;83.60;;;;;;5046828;28;20021;-62
2023/04/16 09:35:19;;;;;;;6.80;2.55;;;16.60;85.20;;;;;;5048128;28;20050;-63
2023/04/16 09:37:57;;;;;;;1.63;0.80;;;16.40;86.80;;;;;;5046823;28;20558;-62
2023/04/16 09:40:29;;;;;;;0.65;0.40;;;16.30;87.00;;;;;;5046881;28;20036;-62
2023/04/16 09:42:59;;;;;;;1.05;0.40;;;16.40;87.60;;;;;;5048255;28;20106;-62
2023/04/16 09:45:32;;;;;;;0.80;0.50;;;16.30;87.90;;;;;;5045668;28;20051;-62
2023/04/16 09:48:04;;;;;;;1.73;0.68;;;16.20;89.90;;;;;;5043669;28;20127;-62
2023/04/16 09:50:32;;;;;;;1.75;0.63;;;16.10;89.80;;;;;;5042389;28;20052;-62
2023/04/16 09:53:02;;;;;;;2.13;0.68;;;16.10;90.00;;;;;;5045693;28;20503;-62
2023/04/16 09:55:30;;;;;;;1.52;0.63;;;15.90;90.20;;;;;;5034009;28;20939;-63
2023/04/16 09:58:01;;;;;;;1.20;0.52;;;15.80;90.80;;;;;;5046569;28;20043;-61
2023/04/16 10:00:30;;;;;;;1.50;0.68;;;15.70;91.80;;;;;;5043309;28;20060;-63
2023/04/16 10:03:05;;;;;;;3.35;0.40;;;15.60;92.20;;;;;;5047069;28;20611;-63
2023/04/16 10:05:32;;;;;;;2.13;0.50;;;15.50;93.20;;;;;;5046134;28;20029;-62
2023/04/16 10:08:10;;;;;;;0.93;0.50;;;15.50;93.70;;;;;;5043121;28;20025;-63
2023/04/16 10:10:37;;;;;;;1.20;0.40;;;15.50;94.20;;;;;;5044489;28;20053;-62
2023/04/16 10:13:05;;;;;;;1.25;0.50;;;15.40;94.60;;;;;;5035312;28;20064;-62
2023/04/16 10:15:33;;;;;;;0.70;0.30;;;15.40;95.20;;;;;;5044365;28;20071;-60
2023/04/16 10:18:01;;;;;;;2.30;0.63;;;15.40;95.40;;;;;;5045518;28;20037;-60
2023/04/16 10:20:29;;;;;;;1.55;0.40;;;15.40;95.80;;;;;;5043975;28;20044;-61
2023/04/16 10:22:57;;;;;;;1.08;0.50;;;15.50;95.00;;;;;;5044301;28;20025;-61
2023/04/16 10:25:25;;;;;;;0.93;0.40;;;15.50;95.20;;;;;;5031114;28;20501;-60
2023/04/16 10:27:53;;;;;;;2.40;0.32;;;15.50;95.50;;;;;;5045149;28;20036;-61
2023/04/16 10:30:21;;;;;;;1.25;0.40;;;15.50;95.60;;;;;;5046164;28;20074;-61
2023/04/16 10:32:49;;;;;;;0.32;0.30;;;15.50;96.00;;;;;;5043795;28;20029;-61
2023/04/16 10:35:20;;;;;;;2.30;0.43;;;15.40;96.40;;;;;;5044436;28;20363;-60
2023/04/16 10:37:47;;;;;;;2.13;0.47;;;15.30;97.70;;;;;;5043977;28;20129;-60
2023/04/16 10:40:28;;;;;;;1.05;0.40;;;15.30;97.90;;;;;;5042678;28;20128;-62
2023/04/16 10:43:00;;;;;;;0.52;0.32;;;15.30;98.80;;;;;;5044372;28;20059;-61
2023/04/16 10:45:37;;;;;;;0.95;0.40;;;15.20;98.90;;;;;;5045522;28;20056;-61
2023/04/16 10:48:13;;;;;;;1.23;0.47;;;15.00;98.90;;;;;;5043103;28;20025;-61
2023/04/16 10:50:41;;;;;;;0.98;0.50;;;14.80;99.40;;;;;;5026301;28;20612;-61
2023/04/16 10:53:19;;;;;;;9.85;2.30;;;14.60;99.90;;;;;;5044211;28;20025;-61
2023/04/16 10:56:05;;;;;;;4.13;1.55;;;14.40;99.90;;;;;;5045095;28;20086;-63
2023/04/16 10:58:35;;;;;;;5.65;2.15;;;14.20;99.90;;;;;;5043913;28;20057;-60
2023/04/16 11:01:13;;;;;;;1.23;0.50;;;14.10;99.90;;;;;;5049990;28;20021;-63
2023/04/16 11:03:47;;;;;;;2.20;0.50;;;14.00;99.90;;;;;;5043157;28;20115;-62
2023/04/16 11:06:17;;;;;;;2.20;0.65;;;13.90;99.90;;;;;;5027939;28;20033;-61
2023/04/16 11:08:46;;;;;;;2.08;0.50;;;13.80;99.90;;;;;;5032829;28;20029;-61
2023/04/16 11:11:13;;;;;;;1.00;0.43;;;13.70;99.90;;;;;;5040075;28;20028;-62
2023/04/16 11:13:47;;;;;;;2.45;0.52;;;13.60;99.90;;;;;;5036865;28;20041;-63
2023/04/16 11:16:16;;;;;;;1.45;0.60;;;13.50;99.90;;;;;;5046628;28;20116;-63
2023/04/16 11:18:45;;;;;;;1.73;0.50;;;13.40;99.90;;;;;;5027247;28;20122;-60
2023/04/16 11:21:13;;;;;;;1.27;0.60;;;13.20;99.90;;;;;;5038947;28;20036;-61
2023/04/16 11:23:51;;;;;;;0.75;0.55;;;13.10;99.90;;;;;;5042177;28;20037;-61
2023/04/16 11:26:31;;;;;;;1.65;0.70;;;13.10;99.90;;;;;;5026890;28;20531;-61
2023/04/16 11:28:59;;;;;;;1.05;0.75;;;12.90;99.90;;;;;;5048424;28;20106;-61
2023/04/16 11:31:26;;;;;;;0.93;0.55;;;12.90;99.90;;;;;;5053489;28;20017;-63
2023/04/16 11:33:56;;;;;;;1.42;0.70;;;12.80;99.90;;;;;;5052008;28;20025;-63
2023/04/16 11:36:25;;;;;;;1.35;0.60;;;12.80;99.90;;;;;;5042057;28;20021;-62
2023/04/16 11:39:02;;;;;;;0.68;0.40;;;12.80;99.90;;;;;;5038095;28;20446;-62
2023/04/16 11:41:30;;;;;;;0.90;0.40;;;12.70;99.90;;;;;;5044344;28;20079;-63
2023/04/16 11:43:57;;;;;;;1.17;0.60;;;12.70;99.90;;;;;;5037766;28;20301;-61
2023/04/16 11:46:39;;;;;;;1.10;0.40;;;12.80;99.90;;;;;;5037010;28;20032;-62
2023/04/16 11:49:06;;;;;;;1.02;0.30;;;12.90;99.90;;;;;;5044156;28;20036;-61
2023/04/16 11:51:38;;;;;;;1.77;0.32;;;12.90;99.90;;;;;;5040382;28;20025;-62
2023/04/16 11:54:09;;;;;;;2.13;0.50;;;13.10;99.90;;;;;;5040840;28;20108;-62
2023/04/16 11:56:37;;;;;;;2.83;0.63;;;13.20;99.90;;;;;;5026829;28;20029;-64
2023/04/16 11:59:12;;;;;;;1.50;0.70;;;13.20;99.90;;;;;;5040840;28;20453;-61
2023/04/16 12:01:41;;;;;;;2.05;0.77;;;13.30;99.90;;;;;;5041820;28;20500;-62
2023/04/16 12:04:09;;;;;;;2.45;1.02;;;13.30;99.90;;;;;;5044778;28;20447;-63
2023/04/16 12:06:36;;;;;;;2.58;0.88;;;13.50;99.90;;;;;;5047368;28;20028;-62
2023/04/16 12:09:25;;;;;;;1.02;0.45;;;13.60;99.90;;;;;;5043141;28;20029;-61
2023/04/16 12:11:53;;;;;;;2.60;0.60;;;13.60;99.90;;;;;;5031621;28;20115;-63
2023/04/16 12:14:20;;;;;;;2.55;0.43;;;13.50;99.90;;;;;;5020190;28;20131;-62
2023/04/16 12:16:48;;;;;;;1.42;0.50;;;13.50;99.90;;;;;;5040326;28;20131;-62
2023/04/16 12:19:15;;;;;;;1.60;0.63;;;13.40;99.90;;;;;;5019963;28;20092;-62
2023/04/16 12:21:44;;;;;;;2.05;0.60;;;13.40;99.90;;;;;;5040262;28;20024;-62
2023/04/16 12:24:14;;;;;;;1.55;0.43;;;13.40;99.90;;;;;;5039843;28;20053;-62
2023/04/16 12:26:44;;;;;;;2.17;0.50;;;13.30;99.90;;;;;;5036875;28;20036;-62
2023/04/16 12:29:22;;;;;;;3.03;0.95;;;13.40;99.90;;;;;;5024868;28;20117;-63
2023/04/16 12:31:51;;;;;;;1.45;0.65;;;13.40;99.90;;;;;;5045885;28;20416;-63
2023/04/16 12:34:20;;;;;;;2.95;0.40;;;13.40;99.90;;;;;;5018120;28;20029;-62
2023/04/16 12:37:02;;;;;;;1.45;0.45;;;13.50;99.90;;;;;;5039662;28;20028;-62
2023/04/16 12:39:29;;;;;;;0.80;0.30;;;13.70;99.90;;;;;;5033751;28;20079;-62
2023/04/16 12:41:57;;;;;;;0.20;0.20;;;14.00;99.90;;;;;;5023652;28;20537;-62
2023/04/16 12:44:26;;;;;;;0.40;0.35;;;14.00;99.90;;;;;;5043639;28;20040;-62
2023/04/16 12:46:54;;;;;;;1.00;0.47;;;14.10;99.90;;;;;;5043082;28;20020;-62
2023/04/16 12:49:22;;;;;;;0.65;0.28;;;14.10;99.90;;;;;;5044117;28;20021;-62
2023/04/16 12:51:49;;;;;;;1.65;0.20;;;14.10;99.90;;;;;;5040331;28;20045;-62
2023/04/16 12:54:17;;;;;;;1.88;0.30;;;14.10;99.90;;;;;;5035646;28;20421;-63
2023/04/16 12:56:44;;;;;;;0.50;0.30;;;14.00;99.90;;;;;;5039814;28;20076;-63
2023/04/16 12:59:11;;;;;;;1.95;0.50;;;14.10;99.90;;;;;;5041996;28;20116;-62
2023/04/16 13:01:39;;;;;;;0.43;0.22;;;14.00;99.90;;;;;;5045930;28;20112;-63
2023/04/16 13:04:06;;;;;;;3.03;0.52;;;14.00;99.90;;;;;;5043207;28;20033;-63
2023/04/16 13:06:35;;;;;;;1.45;0.20;;;13.90;99.90;;;;;;5041541;28;20044;-63